Time;durP1;ratioP1;P1;durP2;ratioP2;P2;SDS_P1;SDS_P2;PMS_P1;PMS_P2;Temp;Humidity;BMP_temperature;BMP_pressure;BME280_temperature;BME280_humidity;BME280_pressure;Samples;Min_cycle;Max_cycle;Signal;HPM_P1;HPM_P2
2023/03/31 07:30:49;;;;;;;7.47;2.22;;;;;;;8.49;93.35;95339.22;2081048;28;20558;-58
2023/03/31 07:31:51;;;;;;;6.70;2.38;;;;;;;8.93;90.59;95328.94;2082353;28;20208;-58
2023/03/31 07:33:46;;;;;;;3.58;1.80;;;;;;;9.34;87.14;95316.94;2098161;27;20557;-59
2023/03/31 07:35:53;;;;;;;6.07;1.85;;;;;;;9.89;84.55;95334.41;2082990;28;20558;-58
2023/03/31 07:37:10;;;;;;;2.85;1.40;;;;;;;10.29;82.65;95333.63;2072541;28;20205;-59
2023/03/31 07:38:12;;;;;;;9.68;1.98;;;;;;;10.51;82.43;95335.69;2073423;28;20208;-59
2023/03/31 07:39:14;;;;;;;3.10;1.30;;;;;;;10.68;80.72;95336.38;2071576;28;20587;-59
2023/03/31 07:40:22;;;;;;;4.50;1.50;;;;;;;10.75;81.00;95325.44;2071660;28;20194;-59
2023/03/31 07:41:25;;;;;;;4.65;1.40;;;;;;;10.88;79.71;95337.66;2071421;28;20217;-59
2023/03/31 07:42:26;;;;;;;4.55;1.80;;;;;;;10.85;78.72;95337.88;2072962;28;20289;-59
2023/03/31 07:43:28;;;;;;;3.00;1.50;;;;;;;11.04;79.09;95327.03;2072948;28;20212;-59
2023/03/31 07:44:32;;;;;;;5.68;1.65;;;;;;;11.08;78.17;95326.72;2074518;28;20197;-60
2023/03/31 07:45:34;;;;;;;4.28;1.20;;;;;;;11.02;77.36;95332.38;2071419;28;20589;-59
2023/03/31 07:46:36;;;;;;;3.92;1.50;;;;;;;10.97;78.52;95323.16;2072296;28;20314;-60
2023/03/31 07:47:38;;;;;;;3.67;2.03;;;;;;;11.06;77.24;95336.44;2074108;28;20204;-60
2023/03/31 07:48:40;;;;;;;4.25;1.35;;;;;;;11.02;78.78;95329.75;2074734;28;20273;-59
2023/03/31 07:49:41;;;;;;;4.05;1.52;;;;;;;11.32;77.63;95331.22;2072935;28;20200;-59
2023/03/31 07:50:43;;;;;;;3.58;1.30;;;;;;;11.38;76.24;95340.41;2069708;28;20312;-60
2023/03/31 07:51:44;;;;;;;4.80;1.75;;;;;;;11.51;76.61;95328.16;2071627;28;20198;-59
2023/03/31 07:52:46;;;;;;;3.17;1.40;;;;;;;11.45;77.21;95333.81;2073817;28;20204;-60
2023/03/31 07:53:48;;;;;;;2.88;1.00;;;;;;;11.71;76.02;95336.41;2074273;28;20824;-60
2023/03/31 07:54:50;;;;;;;3.58;1.55;;;;;;;11.92;73.78;95337.50;2072647;28;20233;-59
2023/03/31 07:55:51;;;;;;;1.98;1.00;;;;;;;11.97;74.28;95324.13;2070581;28;20236;-59
2023/03/31 07:56:53;;;;;;;4.07;1.25;;;;;;;11.80;74.27;95334.94;2069951;28;20198;-60
2023/03/31 07:57:55;;;;;;;5.32;1.38;;;;;;;11.84;73.54;95333.75;2072808;28;20197;-60
2023/03/31 07:58:56;;;;;;;6.07;1.80;;;;;;;11.81;74.38;95326.97;2073543;28;20649;-59
2023/03/31 07:59:58;;;;;;;5.40;1.17;;;;;;;11.95;74.52;95335.59;2072450;28;20202;-59
2023/03/31 08:01:00;;;;;;;3.63;1.02;;;;;;;12.04;72.61;95327.16;2072161;28;20712;-59
2023/03/31 08:02:01;;;;;;;3.75;1.35;;;;;;;12.23;73.21;95327.50;2073026;28;20233;-60
2023/03/31 08:03:03;;;;;;;2.70;1.13;;;;;;;12.22;72.05;95331.03;2073141;28;20193;-61
2023/03/31 08:04:04;;;;;;;3.75;1.00;;;;;;;12.31;72.50;95332.16;2073545;28;20225;-59
2023/03/31 08:05:06;;;;;;;4.00;1.00;;;;;;;12.39;72.53;95336.84;2074094;28;20204;-60
2023/03/31 08:06:08;;;;;;;1.90;0.98;;;;;;;12.65;72.19;95328.88;2072552;28;20324;-60
2023/03/31 08:07:12;;;;;;;6.35;1.40;;;;;;;12.59;72.36;95335.38;2074950;28;20444;-60
2023/03/31 08:08:13;;;;;;;2.35;0.90;;;;;;;12.59;70.99;95340.63;2074438;28;20198;-60
2023/03/31 08:09:15;;;;;;;4.38;1.60;;;;;;;12.38;71.93;95325.56;2073729;28;20201;-62
2023/03/31 08:10:20;;;;;;;4.18;1.52;;;;;;;12.50;72.66;95326.41;2073869;28;20248;-62
2023/03/31 08:11:23;;;;;;;2.05;1.10;;;;;;;12.57;72.57;95324.22;2072835;28;20220;-62
2023/03/31 08:12:24;;;;;;;3.00;1.20;;;;;;;12.66;72.67;95322.66;2073710;28;20198;-63
2023/03/31 08:13:26;;;;;;;5.15;1.50;;;;;;;12.70;72.17;95337.22;2072853;28;20251;-62
2023/03/31 08:14:27;;;;;;;6.07;1.30;;;;;;;13.14;71.12;95326.97;2072491;28;20200;-62
2023/03/31 08:15:41;;;;;;;8.90;1.25;;;;;;;13.23;70.34;95327.13;2072774;28;20212;-62
2023/03/31 08:16:43;;;;;;;3.58;1.55;;;;;;;13.36;71.00;95327.00;2073130;28;20197;-62
2023/03/31 08:17:45;;;;;;;5.72;1.52;;;;;;;13.35;69.51;95325.34;2074523;28;20288;-62
2023/03/31 08:18:46;;;;;;;12.45;1.40;;;;;;;13.26;69.83;95333.91;2070197;28;20205;-62
2023/03/31 08:19:49;;;;;;;3.80;1.38;;;;;;;13.10;70.29;95334.22;2073073;28;20201;-62
2023/03/31 08:20:50;;;;;;;1.95;1.10;;;;;;;13.00;71.04;95333.25;2069639;28;20708;-62
2023/03/31 08:21:52;;;;;;;5.45;1.20;;;;;;;12.81;70.70;95311.06;2073005;28;20564;-62
2023/03/31 08:22:53;;;;;;;3.38;1.35;;;;;;;13.00;71.52;95334.09;2072140;28;20209;-62
2023/03/31 08:23:55;;;;;;;6.00;1.45;;;;;;;13.23;71.12;95329.75;2072344;28;20201;-61
2023/03/31 08:24:56;;;;;;;5.75;1.30;;;;;;;13.19;70.36;95325.69;2072713;28;20202;-62
2023/03/31 08:26:18;;;;;;;10.48;1.90;;;;;;;13.25;70.23;95324.38;2069588;28;20260;-62
2023/03/31 08:27:20;;;;;;;8.68;1.58;;;;;;;12.81;70.24;95313.69;2074176;28;20197;-62
2023/03/31 08:28:22;;;;;;;6.60;1.27;;;;;;;12.76;71.90;95333.31;2074344;28;20198;-62
2023/03/31 08:29:23;;;;;;;3.53;1.13;;;;;;;12.95;70.13;95324.91;2071359;28;20198;-62
2023/03/31 08:30:25;;;;;;;5.68;1.30;;;;;;;13.02;70.29;95326.94;2073685;28;20560;-62
2023/03/31 08:31:27;;;;;;;3.78;1.15;;;;;;;12.66;70.70;95335.75;2074417;28;20197;-62
2023/03/31 08:32:31;;;;;;;4.13;1.30;;;;;;;12.21;72.84;95320.69;2069979;28;20210;-63
2023/03/31 08:33:33;;;;;;;5.00;1.83;;;;;;;12.22;73.71;95323.19;2071566;28;20258;-62
2023/03/31 08:34:35;;;;;;;7.75;1.95;;;;;;;12.76;72.18;95317.59;2073936;28;20201;-62
2023/03/31 08:35:37;;;;;;;6.45;1.40;;;;;;;12.89;71.27;95323.59;2072551;28;20276;-62
2023/03/31 08:36:38;;;;;;;13.40;1.70;;;;;;;12.96;70.67;95314.31;2073419;28;20218;-62
2023/03/31 08:37:40;;;;;;;15.75;1.42;;;;;;;12.99;70.49;95316.72;2073423;28;20534;-62
2023/03/31 08:38:46;;;;;;;7.63;1.45;;;;;;;13.01;70.87;95321.84;2073477;28;20227;-61
2023/03/31 08:39:47;;;;;;;6.35;1.52;;;;;;;13.19;70.04;95320.44;2073631;28;20228;-62
2023/03/31 08:40:49;;;;;;;4.15;1.48;;;;;;;13.14;69.98;95317.34;2073617;28;20222;-62
2023/03/31 08:42:00;;;;;;;3.50;1.20;;;;;;;12.71;71.23;95326.63;2073000;28;20205;-62
2023/03/31 08:43:11;;;;;;;7.95;2.03;;;;;;;12.98;69.98;95330.75;2072980;28;20240;-62
2023/03/31 08:44:25;;;;;;;6.70;1.77;;;;;;;12.98;70.23;95320.28;2073829;28;20206;-62
2023/03/31 08:45:32;;;;;;;4.60;1.20;;;;;;;12.73;68.75;95311.66;2071225;28;20207;-62
2023/03/31 08:46:34;;;;;;;12.00;1.90;;;;;;;12.73;69.80;95330.00;2071038;28;20247;-62
2023/03/31 08:47:39;;;;;;;6.60;1.65;;;;;;;12.93;69.96;95311.09;2068951;28;20202;-62
2023/03/31 08:48:47;;;;;;;5.38;1.15;;;;;;;12.74;70.07;95323.78;2064247;28;20316;-62
2023/03/31 08:49:55;;;;;;;10.93;1.73;;;;;;;12.61;70.49;95322.19;2067536;28;20209;-62
2023/03/31 08:51:02;;;;;;;5.25;1.42;;;;;;;12.62;70.71;95322.09;2065439;28;20217;-62
2023/03/31 08:52:11;;;;;;;4.97;1.95;;;;;;;12.70;70.48;95324.13;2064232;28;20202;-61
2023/03/31 08:53:22;;;;;;;8.88;1.30;;;;;;;12.72;69.64;95315.22;2066744;28;20202;-62
2023/03/31 08:54:37;;;;;;;6.00;1.08;;;;;;;12.67;70.07;95322.59;2064586;28;20249;-62
2023/03/31 08:55:50;;;;;;;7.53;1.30;;;;;;;12.87;70.15;95312.38;2064091;28;20692;-62
2023/03/31 08:56:52;;;;;;;5.53;1.40;;;;;;;13.06;69.65;95301.34;2067250;28;20699;-62
2023/03/31 08:58:29;;;;;;;8.05;1.27;;;;;;;12.87;69.77;95321.09;2067401;28;20252;-62
2023/03/31 08:59:33;;;;;;;7.57;1.40;;;;;;;12.81;69.87;95303.22;2066709;28;20267;-61
2023/03/31 09:01:15;;;;;;;3.13;1.02;;;;;;;12.73;69.46;95308.19;2065929;28;20704;-61
2023/03/31 09:02:47;;;;;;;3.25;1.15;;;;;;;12.63;69.05;95309.81;2067983;28;20844;-61
2023/03/31 09:04:10;;;;;;;7.25;1.55;;;;;;;12.40;67.51;95320.19;2066471;28;20198;-61
2023/03/31 09:05:22;;;;;;;5.70;1.15;;;;;;;12.39;67.78;95316.75;2067210;28;20726;-61
2023/03/31 09:06:37;;;;;;;8.32;1.63;;;;;;;12.57;68.59;95296.22;2066277;28;20217;-60
2023/03/31 09:08:03;;;;;;;5.18;1.35;;;;;;;12.77;69.21;95298.31;2068127;28;20713;-60
2023/03/31 09:09:13;;;;;;;4.60;1.40;;;;;;;12.63;68.69;95292.31;2069065;28;20198;-61
2023/03/31 09:10:23;;;;;;;9.65;1.50;;;;;;;12.72;68.76;95303.88;2068434;28;20203;-60
2023/03/31 09:11:30;;;;;;;6.72;1.63;;;;;;;12.74;69.05;95291.53;2068069;28;20232;-60
2023/03/31 09:12:55;;;;;;;3.85;1.20;;;;;;;12.74;68.28;95294.97;2067504;28;20233;-61
2023/03/31 09:14:09;;;;;;;5.55;1.23;;;;;;;12.41;68.05;95299.13;2066317;28;20607;-61
2023/03/31 09:15:25;;;;;;;4.30;1.23;;;;;;;12.03;69.27;95313.22;2070812;28;20249;-61
2023/03/31 09:16:44;;;;;;;9.30;1.23;;;;;;;12.28;68.37;95301.00;2069958;28;20248;-61
2023/03/31 09:17:50;;;;;;;7.40;1.13;;;;;;;12.62;68.46;95287.19;2066339;28;20202;-61
2023/03/31 09:18:58;;;;;;;3.13;1.20;;;;;;;12.74;67.22;95292.34;2067480;28;20185;-60
2023/03/31 09:20:20;;;;;;;7.68;1.40;;;;;;;12.77;66.91;95319.25;2068548;28;20202;-60
2023/03/31 09:21:30;;;;;;;11.73;1.35;;;;;;;12.77;65.20;95287.84;2065170;28;20642;-67
2023/03/31 09:22:36;;;;;;;8.25;1.13;;;;;;;12.61;64.72;95288.13;2067081;28;20661;-65
2023/03/31 09:23:43;;;;;;;7.65;1.52;;;;;;;12.64;64.96;95267.78;2068329;28;20300;-65
2023/03/31 09:24:59;;;;;;;3.42;1.30;;;;;;;12.64;65.43;95277.44;2064303;28;20226;-66
2023/03/31 09:26:03;;;;;;;4.88;1.25;;;;;;;12.76;64.13;95265.22;2064462;28;20703;-65
2023/03/31 09:27:10;;;;;;;8.32;1.50;;;;;;;12.76;63.85;95294.88;2068090;28;20286;-65
2023/03/31 09:28:20;;;;;;;4.40;1.83;;;;;;;12.95;64.01;95288.22;2069518;28;20198;-65
2023/03/31 09:29:40;;;;;;;8.48;1.92;;;;;;;12.74;64.61;95279.25;2064422;28;20195;-65
2023/03/31 09:30:42;;;;;;;15.70;2.60;;;;;;;12.98;63.13;95273.13;2067657;28;20481;-65
2023/03/31 09:31:45;;;;;;;11.60;2.90;;;;;;;13.35;62.01;95270.28;2065938;28;20253;-66
2023/03/31 09:32:51;;;;;;;6.85;1.50;;;;;;;13.12;62.69;95269.44;2065334;28;20197;-65
2023/03/31 09:34:00;;;;;;;6.55;1.50;;;;;;;13.30;60.68;95261.94;2071446;28;20225;-66
2023/03/31 09:35:20;;;;;;;12.38;2.13;;;;;;;13.41;59.95;95263.78;2070152;28;20236;-66
2023/03/31 09:36:22;;;;;;;5.47;1.73;;;;;;;13.26;59.52;95268.38;2069740;28;20758;-66
2023/03/31 09:37:28;;;;;;;5.50;1.10;;;;;;;13.09;59.76;95253.13;2071734;28;20232;-65
2023/03/31 09:38:30;;;;;;;9.60;1.20;;;;;;;13.60;60.01;95257.06;2067298;28;20205;-66
2023/03/31 09:39:32;;;;;;;8.55;2.15;;;;;;;14.04;60.39;95263.19;2066483;28;20194;-65
2023/03/31 09:40:33;;;;;;;8.75;1.65;;;;;;;13.86;59.32;95258.47;2067141;28;20210;-65
2023/03/31 09:41:42;;;;;;;9.00;1.38;;;;;;;13.23;59.17;95247.66;2067729;28;20209;-65
2023/03/31 09:42:53;;;;;;;14.30;2.33;;;;;;;12.98;60.86;95212.84;2067188;28;20225;-64
2023/03/31 09:43:54;;;;;;;8.80;1.58;;;;;;;13.66;59.72;95256.59;2066791;28;20193;-65
2023/03/31 09:44:56;;;;;;;13.43;1.67;;;;;;;13.18;59.60;95248.00;2067487;28;20622;-64
2023/03/31 09:45:57;;;;;;;5.97;1.27;;;;;;;13.27;60.08;95249.09;2064961;28;20226;-64
2023/03/31 09:47:27;;;;;;;12.43;1.40;;;;;;;13.12;60.40;95261.56;2066729;28;20206;-65
2023/03/31 09:48:35;;;;;;;4.20;1.30;;;;;;;12.98;60.16;95254.78;2067655;28;20376;-63
2023/03/31 09:49:37;;;;;;;7.35;1.75;;;;;;;12.95;60.49;95238.44;2067300;28;20237;-63
2023/03/31 09:50:45;;;;;;;12.00;2.35;;;;;;;13.36;60.93;95245.72;2065421;28;20552;-63
2023/03/31 09:51:57;;;;;;;14.80;2.03;;;;;;;13.35;61.13;95238.00;2067711;28;20715;-63
2023/03/31 09:53:03;;;;;;;8.55;2.00;;;;;;;13.35;56.89;95230.13;2067505;28;20573;-63
2023/03/31 09:54:28;;;;;;;5.65;1.40;;;;;;;12.99;60.42;95232.00;2066798;28;20289;-63
2023/03/31 09:55:52;;;;;;;10.77;2.45;;;;;;;13.01;62.06;95225.69;2065574;28;20197;-63
2023/03/31 09:56:54;;;;;;;9.75;2.38;;;;;;;13.31;61.00;95228.72;2068094;28;20242;-63
2023/03/31 09:57:58;;;;;;;8.95;1.90;;;;;;;13.66;59.69;95223.34;2066987;28;20252;-63
2023/03/31 09:59:01;;;;;;;8.55;2.10;;;;;;;13.98;58.94;95225.16;2065638;28;20546;-63
2023/03/31 10:00:18;;;;;;;10.63;1.98;;;;;;;14.44;58.94;95227.63;2068457;28;20202;-63
2023/03/31 10:01:22;;;;;;;7.78;1.55;;;;;;;13.85;57.09;95203.47;2066464;28;20225;-63
2023/03/31 10:02:35;;;;;;;8.43;1.65;;;;;;;13.91;56.99;95213.47;2067894;28;20198;-63
2023/03/31 10:03:55;;;;;;;8.90;2.63;;;;;;;14.08;57.67;95240.16;2068104;28;21239;-63
2023/03/31 10:04:57;;;;;;;6.28;1.60;;;;;;;14.13;57.58;95238.00;2068331;28;20221;-63
2023/03/31 10:05:58;;;;;;;12.00;2.40;;;;;;;14.23;56.80;95235.47;2066074;28;20248;-63
2023/03/31 10:07:02;;;;;;;6.07;1.35;;;;;;;14.45;56.83;95237.13;2065333;28;20298;-63
2023/03/31 10:08:16;;;;;;;7.15;1.70;;;;;;;14.16;56.33;95237.75;2065609;28;20194;-65
2023/03/31 10:09:20;;;;;;;9.73;1.55;;;;;;;14.27;57.30;95236.88;2065068;28;20190;-65
2023/03/31 10:10:32;;;;;;;7.55;1.92;;;;;;;14.84;56.89;95233.03;2066396;28;20265;-65
2023/03/31 10:11:36;;;;;;;5.47;1.50;;;;;;;14.72;56.00;95231.44;2066534;28;20217;-64
2023/03/31 10:12:38;;;;;;;3.85;1.05;;;;;;;14.78;55.93;95232.69;2067865;28;20194;-65
2023/03/31 10:13:46;;;;;;;4.75;1.30;;;;;;;14.84;55.59;95227.78;2066325;28;20198;-64
2023/03/31 10:14:50;;;;;;;5.45;1.15;;;;;;;14.29;57.04;95224.44;2063744;28;20194;-64
2023/03/31 10:15:53;;;;;;;12.63;1.73;;;;;;;14.27;57.28;95221.97;2066440;28;20237;-64
2023/03/31 10:16:56;;;;;;;5.97;1.52;;;;;;;14.00;58.57;95217.97;2066586;28;20752;-64
2023/03/31 10:17:58;;;;;;;6.18;1.55;;;;;;;14.76;57.77;95221.50;2066196;28;20191;-64
2023/03/31 10:19:14;;;;;;;8.48;2.30;;;;;;;14.22;58.97;95216.25;2071325;28;20220;-64
2023/03/31 10:20:26;;;;;;;6.97;1.48;;;;;;;13.81;59.87;95223.06;2069873;28;20584;-64
2023/03/31 10:21:37;;;;;;;7.38;2.35;;;;;;;13.38;60.50;95215.03;2066298;28;20732;-64
2023/03/31 10:22:43;;;;;;;4.75;1.55;;;;;;;12.90;61.21;95223.91;2063900;28;20209;-65
2023/03/31 10:23:46;;;;;;;7.43;1.77;;;;;;;12.72;61.22;95214.84;2065842;28;20230;-64
2023/03/31 10:24:50;;;;;;;7.47;1.77;;;;;;;12.59;63.12;95233.25;2067108;28;20206;-63
2023/03/31 10:25:52;;;;;;;8.63;1.40;;;;;;;12.65;64.19;95226.75;2067265;28;20832;-63
2023/03/31 10:26:56;;;;;;;5.82;1.90;;;;;;;12.43;62.92;95217.88;2063908;28;20290;-63
2023/03/31 10:28:00;;;;;;;4.38;1.20;;;;;;;13.20;61.68;95219.03;2065817;28;20205;-63
2023/03/31 10:29:10;;;;;;;4.97;1.40;;;;;;;13.54;61.48;95227.75;2066884;28;20210;-64
2023/03/31 10:30:19;;;;;;;9.98;1.55;;;;;;;13.50;60.80;95210.59;2065804;28;20197;-64
2023/03/31 10:31:25;;;;;;;7.65;1.77;;;;;;;13.11;62.12;95217.97;2065355;28;20249;-63
2023/03/31 10:32:32;;;;;;;10.77;1.75;;;;;;;13.04;62.04;95217.63;2070899;28;20579;-64
2023/03/31 10:33:45;;;;;;;9.82;1.58;;;;;;;13.32;61.34;95212.00;2069390;28;20208;-64
2023/03/31 10:34:47;;;;;;;11.25;2.13;;;;;;;13.13;62.86;95216.06;2063650;28;20217;-63
2023/03/31 10:35:54;;;;;;;5.95;1.80;;;;;;;13.65;62.32;95215.56;2064877;28;20865;-63
2023/03/31 10:36:56;;;;;;;5.78;1.48;;;;;;;13.15;62.73;95208.91;2068087;28;20221;-64
2023/03/31 10:38:03;;;;;;;13.82;1.30;;;;;;;13.24;62.97;95215.22;2063607;28;20195;-63
2023/03/31 10:39:07;;;;;;;5.95;1.63;;;;;;;13.44;62.73;95212.88;2067546;28;20210;-63
2023/03/31 10:40:18;;;;;;;8.75;1.73;;;;;;;13.58;62.06;95206.53;2071171;28;20229;-64
2023/03/31 10:41:23;;;;;;;9.32;2.45;;;;;;;13.44;61.02;95197.16;2068332;28;20740;-63
2023/03/31 10:42:26;;;;;;;9.13;1.42;;;;;;;13.77;60.24;95211.97;2066480;28;20283;-64
2023/03/31 10:43:34;;;;;;;5.05;2.05;;;;;;;13.84;59.49;95204.44;2065669;28;20240;-64
2023/03/31 10:44:38;;;;;;;7.03;1.52;;;;;;;13.74;59.19;95196.50;2066174;28;20676;-63
2023/03/31 10:45:51;;;;;;;9.07;1.55;;;;;;;13.39;58.87;95200.13;2065557;28;20889;-63
2023/03/31 10:46:52;;;;;;;9.43;1.73;;;;;;;13.43;59.94;95204.16;2065392;28;20202;-63
2023/03/31 10:47:57;;;;;;;9.55;1.70;;;;;;;13.29;59.52;95207.00;2066261;28;20201;-63
2023/03/31 10:48:59;;;;;;;9.90;2.08;;;;;;;13.17;59.38;95217.50;2066925;28;20202;-64
2023/03/31 10:50:03;;;;;;;4.05;1.60;;;;;;;12.77;59.88;95199.59;2066067;28;20206;-63
2023/03/31 10:51:24;;;;;;;6.10;1.70;;;;;;;12.60;60.33;95210.56;2062467;28;20215;-63
2023/03/31 10:52:26;;;;;;;5.90;1.63;;;;;;;12.34;61.73;95211.56;2064909;28;20205;-64
2023/03/31 10:53:27;;;;;;;6.63;1.63;;;;;;;12.22;62.08;95197.56;2067060;28;20193;-60
2023/03/31 10:54:29;;;;;;;10.52;1.67;;;;;;;12.06;61.76;95200.50;2067558;28;20190;-61
2023/03/31 10:56:07;;;;;;;10.80;1.55;;;;;;;11.86;61.36;95173.16;2065312;28;20198;-61
2023/03/31 10:57:09;;;;;;;5.78;1.42;;;;;;;11.65;62.65;95187.81;2066535;28;20214;-61
2023/03/31 10:58:20;;;;;;;10.57;1.98;;;;;;;11.48;65.27;95200.31;2067289;28;20674;-61
2023/03/31 10:59:43;;;;;;;7.93;1.33;;;;;;;11.17;69.35;95212.91;2067001;28;20361;-61
2023/03/31 11:00:57;;;;;;;8.55;1.38;;;;;;;10.75;70.95;95244.50;2067956;28;20241;-60
2023/03/31 11:02:23;;;;;;;12.90;2.25;;;;;;;10.35;74.39;95247.13;2067086;28;20202;-60
2023/03/31 11:03:48;;;;;;;6.90;1.40;;;;;;;9.96;75.50;95254.00;2066053;28;20289;-59
2023/03/31 11:05:14;;;;;;;10.05;2.28;;;;;;;9.72;78.28;95259.00;2067570;28;20230;-59
2023/03/31 11:06:25;;;;;;;4.35;1.20;;;;;;;9.39;77.41;95275.81;2067674;28;20677;-61
2023/03/31 11:34:23;;;;;;;1.60;0.73;;;;;;;7.04;91.26;95302.88;2084310;28;20565;-61
2023/03/31 11:35:53;;;;;;;3.00;0.77;;;;;;;7.06;89.97;95307.97;2082633;28;20201;-61
2023/03/31 11:37:17;;;;;;;2.35;0.50;;;;;;;7.09;89.68;95305.25;2073245;28;20635;-61
2023/03/31 11:38:39;;;;;;;2.17;0.90;;;;;;;7.15;89.13;95305.75;2073644;28;20719;-61
2023/03/31 11:40:06;;;;;;;1.48;0.60;;;;;;;7.22;88.95;95288.09;2073091;28;20220;-62
2023/03/31 11:41:20;;;;;;;10.07;0.70;;;;;;;7.29;87.89;95286.84;2078429;28;20230;-61
2023/03/31 11:42:26;;;;;;;1.88;0.60;;;;;;;7.38;88.77;95295.91;2081545;28;20204;-61
2023/03/31 11:43:47;;;;;;;2.58;0.73;;;;;;;7.48;88.31;95286.69;2082546;28;20200;-62
2023/03/31 11:45:01;;;;;;;1.20;0.60;;;;;;;7.51;85.10;95280.50;2081039;28;20782;-66
2023/03/31 11:46:11;;;;;;;1.10;0.63;;;;;;;7.64;86.56;95288.47;2079577;28;20275;-65
2023/03/31 11:47:17;;;;;;;9.90;5.32;;;;;;;7.80;84.98;95265.06;2080878;28;20227;-66
2023/03/31 11:48:43;;;;;;;2.00;0.80;;;;;;;8.05;85.95;95261.94;2081705;28;20193;-67
2023/03/31 11:49:51;;;;;;;1.00;0.60;;;;;;;8.29;83.55;95251.91;2081551;28;20219;-69
2023/03/31 11:50:55;;;;;;;2.67;0.85;;;;;;;8.86;80.76;95263.34;2080265;28;20251;-67
2023/03/31 11:52:02;;;;;;;0.90;0.50;;;;;;;9.27;78.46;95259.19;2079825;28;20656;-67
2023/03/31 11:53:15;;;;;;;2.25;0.60;;;;;;;9.71;78.32;95268.59;2085926;28;20203;-67
2023/03/31 11:54:27;;;;;;;5.53;0.70;;;;;;;9.50;76.35;95276.00;2085053;28;20261;-67
2023/03/31 11:55:31;;;;;;;2.10;0.70;;;;;;;9.94;76.62;95258.47;2082160;28;20204;-66
2023/03/31 11:56:37;;;;;;;1.98;0.70;;;;;;;9.94;75.27;95241.06;2082568;28;20203;-67
2023/03/31 11:57:45;;;;;;;2.20;0.70;;;;;;;10.19;75.06;95255.09;2081235;28;20194;-66
2023/03/31 11:58:52;;;;;;;2.97;0.70;;;;;;;10.08;74.55;95237.56;2080356;28;20312;-66
2023/03/31 12:00:05;;;;;;;2.42;0.60;;;;;;;10.38;75.87;95241.72;2084816;28;20288;-66
2023/03/31 12:01:28;;;;;;;2.00;0.60;;;;;;;10.32;75.11;95205.56;2082139;28;20353;-66
2023/03/31 12:02:42;;;;;;;1.98;0.75;;;;;;;10.70;74.57;95228.28;2081768;28;20590;-66
2023/03/31 12:03:56;;;;;;;2.38;0.98;;;;;;;10.86;73.85;95240.31;2081368;28;20203;-66
2023/03/31 12:04:58;;;;;;;2.55;0.63;;;;;;;10.74;71.90;95235.00;2080763;28;20204;-66
2023/03/31 12:06:15;;;;;;;1.00;0.60;;;;;;;10.75;71.86;95235.81;2076959;28;20315;-66
2023/03/31 12:07:59;;;;;;;3.10;0.70;;;;;;;10.62;72.17;95248.88;2081738;28;20200;-63
2023/03/31 12:09:49;;;;;;;1.33;0.50;;;;;;;10.87;72.72;95237.59;2084754;28;20612;-63
2023/03/31 12:10:57;;;;;;;5.18;0.80;;;;;;;11.05;72.34;95237.28;2078562;28;20248;-63
2023/03/31 12:12:06;;;;;;;1.58;0.60;;;;;;;11.22;72.97;95225.66;2081950;28;20233;-63
2023/03/31 12:13:22;;;;;;;1.88;0.70;;;;;;;11.10;71.62;95228.16;2081827;28;20198;-63
2023/03/31 12:14:28;;;;;;;1.50;0.65;;;;;;;10.84;71.60;95231.75;2076742;28;20198;-63
2023/03/31 12:15:36;;;;;;;1.60;0.70;;;;;;;10.41;73.17;95232.84;2085393;28;20196;-63
2023/03/31 12:16:44;;;;;;;3.63;0.70;;;;;;;10.39;72.76;95226.91;2081799;28;20205;-63
2023/03/31 12:17:54;;;;;;;1.48;0.70;;;;;;;10.71;72.68;95242.19;2081107;28;20198;-63
2023/03/31 12:19:15;;;;;;;1.73;0.70;;;;;;;11.26;71.60;95225.34;2081315;28;20208;-63
2023/03/31 12:20:31;;;;;;;3.17;0.70;;;;;;;11.59;70.17;95209.97;2081302;28;20196;-63
2023/03/31 12:21:36;;;;;;;2.53;0.70;;;;;;;11.66;70.19;95205.16;2072778;28;20220;-63
2023/03/31 12:22:42;;;;;;;3.63;0.90;;;;;;;12.16;69.62;95212.91;2071446;28;20332;-63
2023/03/31 12:23:44;;;;;;;3.22;1.00;;;;;;;12.02;69.33;95206.88;2074174;28;20213;-63
2023/03/31 12:24:46;;;;;;;3.90;1.10;;;;;;;12.12;68.84;95209.69;2075293;28;20236;-63
2023/03/31 12:26:00;;;;;;;3.65;0.73;;;;;;;12.46;68.54;95212.41;2072423;28;20221;-64
2023/03/31 12:27:12;;;;;;;2.20;0.90;;;;;;;12.61;68.07;95223.53;2081234;28;20204;-63
2023/03/31 12:28:16;;;;;;;4.15;0.90;;;;;;;12.36;68.66;95222.72;2083742;28;20227;-63
2023/03/31 12:29:41;;;;;;;3.65;0.80;;;;;;;12.25;67.63;95206.97;2080477;28;20197;-64
2023/03/31 12:30:45;;;;;;;2.63;0.82;;;;;;;12.45;67.01;95208.13;2080228;28;20540;-66
2023/03/31 12:31:49;;;;;;;7.32;1.20;;;;;;;12.22;66.86;95200.19;2085387;28;20713;-63
2023/03/31 12:32:54;;;;;;;8.68;1.05;;;;;;;12.31;68.00;95195.25;2081547;28;20254;-63
2023/03/31 12:34:07;;;;;;;5.80;1.27;;;;;;;11.98;66.02;95200.22;2080923;28;20667;-63
2023/03/31 12:35:36;;;;;;;6.63;1.17;;;;;;;12.24;67.78;95193.06;2081713;28;20311;-63
2023/03/31 12:37:15;;;;;;;3.03;1.10;;;;;;;12.31;64.01;95182.16;2080452;28;20248;-64
2023/03/31 12:38:32;;;;;;;5.00;1.33;;;;;;;12.58;64.07;95187.94;2081467;28;20193;-62
2023/03/31 12:39:52;;;;;;;4.90;1.20;;;;;;;12.92;63.61;95194.97;2081197;28;20197;-62
2023/03/31 12:41:06;;;;;;;6.82;1.17;;;;;;;12.28;62.69;95177.13;2078553;28;20225;-61
2023/03/31 12:42:14;;;;;;;4.10;1.30;;;;;;;12.34;63.67;95195.00;2079435;28;20192;-64
2023/03/31 12:43:48;;;;;;;6.18;1.20;;;;;;;12.53;64.60;95176.13;2085454;28;20240;-65
2023/03/31 12:45:00;;;;;;;10.20;1.10;;;;;;;13.28;62.77;95160.78;2080394;28;20436;-65
2023/03/31 12:46:27;;;;;;;10.93;1.58;;;;;;;13.41;62.40;95181.63;2075602;28;20805;-64
2023/03/31 12:47:58;;;;;;;4.22;1.60;;;;;;;13.05;61.55;95176.50;2076370;28;20202;-63
2023/03/31 12:49:31;;;;;;;4.28;1.35;;;;;;;12.77;62.28;95178.66;2077131;28;20210;-63
2023/03/31 12:51:02;;;;;;;6.35;1.30;;;;;;;13.58;61.07;95175.88;2074945;28;20224;-62
2023/03/31 12:52:21;;;;;;;8.75;1.65;;;;;;;13.35;61.23;95188.19;2074609;28;20243;-63
2023/03/31 12:54:00;;;;;;;5.78;1.23;;;;;;;13.09;62.28;95198.94;2083513;28;20224;-62
2023/03/31 12:55:32;;;;;;;13.52;1.60;;;;;;;12.22;62.68;95202.00;2077828;28;20201;-62
2023/03/31 12:56:59;;;;;;;5.88;1.50;;;;;;;11.65;65.81;95224.41;2067928;28;20198;-62
2023/03/31 12:58:27;;;;;;;11.23;4.80;;;;;;;11.06;67.05;95231.94;2068697;28;20197;-63
2023/03/31 12:59:35;;;;;;;4.53;1.65;;;;;;;10.74;69.93;95235.00;2066104;28;20228;-62
2023/03/31 13:01:06;;;;;;;6.50;1.30;;;;;;;10.45;72.91;95252.63;2068368;28;20198;-63
2023/03/31 13:02:08;;;;;;;3.03;1.30;;;;;;;10.28;74.06;95244.09;2074280;28;20291;-62
2023/03/31 13:03:34;;;;;;;10.00;1.27;;;;;;;9.84;74.81;95232.16;2074660;28;20198;-63
2023/03/31 13:04:37;;;;;;;3.42;1.20;;;;;;;9.63;76.49;95229.97;2075560;28;20196;-63
2023/03/31 13:05:46;;;;;;;4.20;1.10;;;;;;;9.39;77.15;95232.34;2074435;28;20201;-63
2023/03/31 13:17:34;;;;;;;4.03;0.90;;;;;;;7.92;83.73;95163.03;2083330;28;20559;-60
2023/03/31 13:18:37;;;;;;;4.00;0.90;;;;;;;8.05;83.86;95190.88;2081047;28;20627;-60
2023/03/31 13:19:40;;;;;;;4.05;0.80;;;;;;;8.15;81.29;95192.88;2078569;28;20200;-62
2023/03/31 13:20:42;;;;;;;4.30;0.93;;;;;;;8.41;81.00;95176.69;2076376;28;20200;-62
2023/03/31 13:21:55;;;;;;;4.20;0.80;;;;;;;8.42;81.15;95199.16;2073856;28;20707;-63
2023/03/31 13:23:03;;;;;;;3.35;0.70;;;;;;;8.50;82.57;95189.97;2074540;28;20684;-62
2023/03/31 13:24:05;;;;;;;2.20;0.80;;;;;;;8.43;80.42;95214.69;2077504;28;20200;-65
2023/03/31 13:25:29;;;;;;;2.50;0.70;;;;;;;8.52;79.03;95176.91;2076839;28;20278;-63
2023/03/31 13:26:31;;;;;;;3.05;1.05;;;;;;;8.51;80.05;95177.84;2067550;28;20259;-63
2023/03/31 13:27:33;;;;;;;1.50;0.80;;;;;;;8.42;80.89;95173.97;2069776;28;20646;-63
2023/03/31 13:28:42;;;;;;;3.80;1.00;;;;;;;8.29;81.49;95186.03;2065004;28;20224;-64
2023/03/31 13:29:45;;;;;;;5.03;0.80;;;;;;;8.21;80.02;95154.44;2065726;28;20643;-68
2023/03/31 13:30:54;;;;;;;1.52;0.70;;;;;;;8.14;80.78;95183.41;2077391;28;20235;-68
2023/03/31 13:31:59;;;;;;;1.50;0.70;;;;;;;8.16;82.55;95183.31;2076110;28;20641;-67
2023/03/31 13:33:11;;;;;;;1.98;0.80;;;;;;;8.14;80.93;95179.97;2064613;28;20229;-68
2023/03/31 13:34:12;;;;;;;2.05;0.80;;;;;;;8.27;80.23;95178.31;2064757;28;20559;-67
2023/03/31 13:35:24;;;;;;;1.83;0.90;;;;;;;8.31;80.26;95174.59;2064866;28;20195;-67
2023/03/31 13:36:32;;;;;;;6.28;1.10;;;;;;;8.31;80.36;95164.19;2064929;28;20244;-67
2023/03/31 13:38:00;;;;;;;2.70;0.70;;;;;;;8.21;80.11;95217.69;2064416;28;20207;-67